Time;durP1;ratioP1;P1;durP2;ratioP2;P2;SDS_P1;SDS_P2;PMS_P1;PMS_P2;Temp;Humidity;BMP_temperature;BMP_pressure;BME280_temperature;BME280_humidity;BME280_pressure;Samples;Min_cycle;Max_cycle;Signal;HPM_P1;HPM_P2
2023/03/19 00:01:05;;;;;;;26.15;21.23;;;12.20;99.90;;;;;;6111454;23;20009;-75
2023/03/19 00:03:31;;;;;;;28.88;22.00;;;13.00;99.90;;;;;;6087794;23;20101;-75
2023/03/19 00:05:57;;;;;;;25.27;20.70;;;12.80;99.90;;;;;;6136505;23;20013;-75
2023/03/19 00:08:23;;;;;;;24.35;20.35;;;13.20;99.90;;;;;;6111779;23;20134;-74
2023/03/19 00:10:49;;;;;;;24.67;20.40;;;12.90;99.90;;;;;;6136056;23;20285;-76
2023/03/19 00:13:15;;;;;;;25.50;21.50;;;12.60;99.90;;;;;;6135849;23;20295;-76
2023/03/19 00:15:41;;;;;;;24.38;19.50;;;12.00;99.90;;;;;;6111728;23;20049;-77
2023/03/19 00:18:07;;;;;;;26.92;22.33;;;12.20;99.90;;;;;;6135147;23;20013;-76
2023/03/19 00:20:33;;;;;;;27.02;20.88;;;12.00;99.90;;;;;;6111109;23;20052;-74
2023/03/19 00:22:59;;;;;;;26.85;22.00;;;12.30;99.90;;;;;;6161488;23;20072;-75
2023/03/19 00:25:25;;;;;;;27.50;21.60;;;13.30;99.90;;;;;;6089399;23;20192;-77
2023/03/19 00:27:53;;;;;;;26.88;22.15;;;12.50;99.90;;;;;;6112237;23;20016;-75
2023/03/19 00:30:19;;;;;;;26.50;20.95;;;12.00;99.90;;;;;;6112488;23;20025;-75
2023/03/19 00:32:45;;;;;;;25.52;21.98;;;12.00;99.90;;;;;;6135905;23;20169;-75
2023/03/19 00:35:14;;;;;;;23.83;20.30;;;12.30;99.90;;;;;;6110910;23;20072;-75
2023/03/19 00:37:40;;;;;;;25.65;21.35;;;12.60;99.90;;;;;;6110573;23;20013;-74
2023/03/19 00:40:07;;;;;;;28.58;20.33;;;12.20;99.90;;;;;;6089009;23;20021;-74
2023/03/19 00:42:33;;;;;;;26.85;22.42;;;12.40;99.90;;;;;;6088674;23;20028;-74
2023/03/19 00:44:59;;;;;;;26.65;21.63;;;12.10;99.90;;;;;;6087393;23;20025;-75
2023/03/19 00:47:25;;;;;;;26.40;21.30;;;11.80;99.90;;;;;;6135475;23;20009;-74
2023/03/19 00:49:51;;;;;;;26.33;21.70;;;12.70;99.90;;;;;;6112548;23;20017;-74
2023/03/19 00:52:17;;;;;;;25.45;20.92;;;12.90;99.90;;;;;;6087106;23;20077;-74
2023/03/19 00:54:43;;;;;;;26.10;21.52;;;11.90;99.90;;;;;;6112448;23;20021;-74
2023/03/19 00:57:08;;;;;;;29.33;22.90;;;13.10;99.90;;;;;;6136353;23;20189;-74
2023/03/19 00:59:34;;;;;;;25.08;20.75;;;11.90;99.90;;;;;;6136835;23;20029;-74
2023/03/19 01:02:00;;;;;;;24.55;20.83;;;12.10;99.90;;;;;;6087274;23;20025;-74
2023/03/19 01:04:26;;;;;;;28.33;21.33;;;12.20;99.90;;;;;;6087293;23;20017;-73
2023/03/19 01:06:51;;;;;;;26.60;22.08;;;12.00;99.90;;;;;;6160359;23;20014;-75
2023/03/19 01:09:17;;;;;;;27.33;21.70;;;12.90;99.90;;;;;;6113174;23;20024;-76
2023/03/19 01:11:43;;;;;;;26.70;21.58;;;13.10;99.90;;;;;;6063750;23;20017;-74
2023/03/19 01:14:31;;;;;;;26.13;21.73;;;12.20;99.90;;;;;;6086450;23;20013;-77
2023/03/19 01:17:00;;;;;;;24.13;19.63;;;13.20;99.90;;;;;;6101037;23;20080;-76
2023/03/19 01:19:26;;;;;;;23.05;19.52;;;12.30;99.90;;;;;;6112317;23;20014;-77
2023/03/19 01:21:51;;;;;;;25.73;20.08;;;13.20;99.90;;;;;;6064668;23;20028;-73
2023/03/19 01:24:18;;;;;;;24.10;20.27;;;13.20;99.90;;;;;;6111993;23;20017;-74
2023/03/19 01:26:43;;;;;;;24.98;19.85;;;12.60;99.90;;;;;;6112382;23;20009;-73
2023/03/19 01:29:09;;;;;;;23.48;19.20;;;12.70;99.90;;;;;;6087659;23;20052;-74
2023/03/19 01:31:36;;;;;;;25.75;19.30;;;12.50;99.90;;;;;;6113436;23;20258;-74
2023/03/19 01:34:02;;;;;;;24.45;19.15;;;12.50;99.90;;;;;;6136308;23;20073;-75
2023/03/19 01:36:28;;;;;;;21.45;18.27;;;12.20;99.90;;;;;;6088551;23;20013;-76
2023/03/19 01:38:54;;;;;;;22.45;18.42;;;11.50;99.90;;;;;;6161203;23;20021;-75
2023/03/19 01:41:22;;;;;;;22.23;17.95;;;12.10;99.90;;;;;;6136501;23;20026;-75
2023/03/19 01:43:48;;;;;;;21.70;17.05;;;13.00;99.90;;;;;;6111648;23;20048;-76
2023/03/19 01:46:23;;;;;;;20.33;17.13;;;13.30;99.90;;;;;;6135852;23;20009;-75
2023/03/19 01:48:58;;;;;;;20.10;17.05;;;12.20;99.90;;;;;;6136769;23;20021;-74
2023/03/19 01:51:33;;;;;;;20.65;17.05;;;12.20;99.90;;;;;;6160603;23;20079;-73
2023/03/19 01:54:01;;;;;;;;;;;12.30;99.90;;;;;;6136975;23;20300;-73
2023/03/19 01:56:33;;;;;;;19.20;15.65;;;13.20;99.90;;;;;;6161248;23;20077;-75
2023/03/19 01:59:17;;;;;;;19.35;15.95;;;12.30;99.90;;;;;;6135834;23;20228;-74
2023/03/19 02:01:49;;;;;;;17.02;14.52;;;12.40;99.90;;;;;;6160329;23;20017;-75
2023/03/19 02:04:15;;;;;;;20.88;14.95;;;13.30;99.90;;;;;;6134611;23;20016;-74
2023/03/19 02:06:42;;;;;;;19.33;15.15;;;12.90;99.90;;;;;;6064268;23;20018;-74
2023/03/19 02:09:08;;;;;;;20.73;15.88;;;13.30;99.90;;;;;;6161136;23;20013;-74
2023/03/19 02:11:36;;;;;;;19.80;15.45;;;13.40;99.90;;;;;;6087610;23;20563;-74
2023/03/19 02:14:01;;;;;;;16.80;13.82;;;13.20;99.90;;;;;;6135317;23;20021;-73
2023/03/19 02:16:27;;;;;;;18.00;14.38;;;13.20;99.90;;;;;;6135962;23;20323;-74
2023/03/19 02:18:55;;;;;;;17.58;14.50;;;13.20;99.90;;;;;;6111477;23;20021;-74
2023/03/19 02:21:21;;;;;;;16.92;13.93;;;13.30;99.90;;;;;;6159560;23;20017;-73
2023/03/19 02:24:11;;;;;;;21.63;15.48;;;13.30;99.90;;;;;;6111471;23;20045;-74
2023/03/19 02:26:38;;;;;;;17.17;14.60;;;12.20;99.90;;;;;;6135565;23;20010;-74
2023/03/19 02:29:04;;;;;;;16.98;14.60;;;13.00;99.90;;;;;;6134663;23;20104;-75
2023/03/19 02:31:30;;;;;;;17.92;14.35;;;12.50;99.90;;;;;;6136164;23;20017;-75
2023/03/19 02:34:01;;;;;;;17.90;15.40;;;13.20;99.90;;;;;;6087789;23;20019;-75
2023/03/19 02:36:37;;;;;;;17.90;14.85;;;12.90;99.90;;;;;;6135614;23;20195;-75
2023/03/19 02:39:07;;;;;;;16.70;13.65;;;13.50;99.90;;;;;;6136735;23;20017;-75
2023/03/19 02:41:35;;;;;;;15.38;13.60;;;13.00;99.90;;;;;;6135125;23;20017;-74
2023/03/19 02:44:03;;;;;;;17.90;14.80;;;12.50;99.90;;;;;;6136237;23;20010;-74
2023/03/19 02:46:29;;;;;;;20.58;14.40;;;13.50;99.90;;;;;;6135914;23;20010;-74
2023/03/19 02:48:54;;;;;;;17.60;14.63;;;12.70;99.90;;;;;;6135834;23;20045;-73
2023/03/19 02:51:20;;;;;;;19.90;15.18;;;12.00;99.90;;;;;;6111222;23;20020;-75
2023/03/19 02:53:46;;;;;;;18.73;14.48;;;12.00;99.90;;;;;;6110479;23;20285;-75
2023/03/19 02:56:12;;;;;;;18.30;15.13;;;13.50;99.90;;;;;;6109641;23;20048;-74
2023/03/19 02:58:37;;;;;;;17.23;13.77;;;12.10;99.90;;;;;;6111229;23;20022;-73
2023/03/19 03:01:03;;;;;;;17.30;13.95;;;13.50;99.90;;;;;;6135603;23;20050;-75
2023/03/19 03:03:29;;;;;;;15.15;12.18;;;12.70;99.90;;;;;;6110844;23;20071;-73
2023/03/19 03:05:55;;;;;;;19.20;13.73;;;13.00;99.90;;;;;;6134606;23;20018;-74
2023/03/19 03:08:21;;;;;;;15.50;13.20;;;13.20;99.90;;;;;;6110692;23;20081;-75
2023/03/19 03:10:47;;;;;;;15.45;13.20;;;12.00;99.90;;;;;;6135907;23;20013;-74
2023/03/19 03:13:13;;;;;;;17.83;13.05;;;13.30;99.90;;;;;;6110508;23;20175;-75
2023/03/19 03:15:39;;;;;;;16.55;12.60;;;13.00;99.90;;;;;;6110987;23;20217;-75
2023/03/19 03:18:14;;;;;;;14.73;12.63;;;12.40;99.90;;;;;;6110262;23;20386;-77
2023/03/19 03:20:39;;;;;;;;;;;12.30;99.90;;;;;;6135326;23;20060;-76
2023/03/19 03:23:05;;;;;;;15.43;12.48;;;14.60;99.90;;;;;;6135383;23;19916;-76
2023/03/19 03:25:31;;;;;;;13.18;11.07;;;13.60;99.90;;;;;;6135541;23;20009;-75
2023/03/19 03:27:57;;;;;;;15.13;11.63;;;11.90;99.90;;;;;;6087308;23;20189;-74
2023/03/19 03:30:22;;;;;;;14.40;11.50;;;13.80;99.90;;;;;;6063681;23;20017;-75
2023/03/19 03:32:48;;;;;;;14.63;11.63;;;12.00;99.90;;;;;;6087851;23;20223;-77
2023/03/19 03:35:20;;;;;;;14.15;11.57;;;13.70;99.90;;;;;;6087454;23;20318;-75
2023/03/19 03:37:46;;;;;;;13.65;10.73;;;13.80;99.90;;;;;;6136451;23;20017;-78
2023/03/19 03:40:13;;;;;;;14.05;11.10;;;11.80;99.90;;;;;;6135339;23;20060;-73
2023/03/19 03:42:38;;;;;;;15.25;12.00;;;13.50;99.90;;;;;;6064260;23;20181;-73
2023/03/19 03:45:05;;;;;;;12.30;10.10;;;12.50;99.90;;;;;;6111355;23;20076;-72
2023/03/19 03:47:31;;;;;;;12.38;11.00;;;13.70;99.90;;;;;;6087084;23;20010;-74
2023/03/19 03:49:57;;;;;;;12.50;9.93;;;13.40;99.90;;;;;;6111624;23;20020;-75
2023/03/19 03:52:22;;;;;;;13.73;10.52;;;11.80;99.90;;;;;;6135523;23;20017;-73
2023/03/19 03:54:48;;;;;;;12.55;10.32;;;12.20;99.90;;;;;;6135816;23;20020;-75
2023/03/19 03:57:14;;;;;;;15.00;10.60;;;12.00;99.90;;;;;;6087717;23;20017;-73
2023/03/19 03:59:40;;;;;;;12.85;10.10;;;12.70;99.90;;;;;;6137328;23;20037;-75
2023/03/19 04:02:06;;;;;;;12.77;10.68;;;13.80;99.90;;;;;;6138095;23;20016;-73
2023/03/19 04:04:32;;;;;;;12.10;10.30;;;12.90;99.90;;;;;;6089750;23;20013;-74
2023/03/19 04:06:58;;;;;;;11.82;10.27;;;13.70;99.90;;;;;;6138024;23;20009;-73
2023/03/19 04:09:23;;;;;;;13.20;10.35;;;13.20;99.90;;;;;;6112469;23;20342;-75
2023/03/19 04:11:50;;;;;;;12.35;10.18;;;13.90;99.90;;;;;;6137665;23;20036;-75
2023/03/19 04:14:16;;;;;;;12.13;9.27;;;13.50;99.90;;;;;;6112670;23;20014;-76
2023/03/19 04:16:42;;;;;;;9.93;8.70;;;12.80;99.90;;;;;;6161737;23;20200;-75
2023/03/19 04:19:08;;;;;;;11.23;8.55;;;11.90;99.90;;;;;;6137514;23;20306;-72
2023/03/19 04:21:34;;;;;;;10.27;7.85;;;13.50;99.90;;;;;;6137398;23;20009;-74
2023/03/19 04:24:01;;;;;;;12.57;9.35;;;12.00;99.90;;;;;;6137958;23;20037;-73
2023/03/19 04:26:26;;;;;;;11.32;9.05;;;12.90;99.90;;;;;;6161897;23;20279;-74
2023/03/19 04:28:52;;;;;;;9.75;7.88;;;13.70;99.90;;;;;;6137285;23;20021;-73
2023/03/19 04:31:26;;;;;;;10.50;9.07;;;13.60;99.90;;;;;;6159725;23;20032;-74
2023/03/19 04:33:52;;;;;;;10.27;7.93;;;13.70;99.90;;;;;;6161335;23;20032;-76
2023/03/19 04:36:18;;;;;;;12.48;8.32;;;13.00;99.90;;;;;;6136305;23;20288;-75
2023/03/19 04:38:44;;;;;;;12.75;9.25;;;11.70;99.90;;;;;;6137418;23;20528;-72
2023/03/19 04:41:44;;;;;;;9.85;8.20;;;11.80;99.90;;;;;;6136537;23;20076;-75
2023/03/19 04:44:10;;;;;;;13.90;8.27;;;13.30;99.90;;;;;;6136511;23;20013;-76
2023/03/19 04:46:36;;;;;;;11.93;9.50;;;11.70;99.90;;;;;;6161646;23;20018;-73
2023/03/19 04:49:01;;;;;;;14.88;9.60;;;11.80;99.90;;;;;;6161211;23;20072;-77
2023/03/19 04:51:27;;;;;;;12.52;9.70;;;12.60;99.90;;;;;;6161202;23;20009;-75
2023/03/19 04:53:53;;;;;;;11.98;9.82;;;12.20;99.90;;;;;;6112260;23;20060;-78
2023/03/19 04:56:19;;;;;;;11.88;10.35;;;11.80;99.90;;;;;;6161255;23;20204;-73
2023/03/19 04:58:45;;;;;;;13.18;10.68;;;11.70;99.90;;;;;;6135517;23;20013;-74
2023/03/19 05:01:11;;;;;;;14.95;10.93;;;11.70;99.90;;;;;;6136450;23;20080;-76
2023/03/19 05:03:37;;;;;;;14.48;11.13;;;12.20;99.90;;;;;;6111953;23;20304;-76
2023/03/19 05:06:02;;;;;;;14.98;11.13;;;11.80;99.90;;;;;;6111759;23;20010;-76
2023/03/19 05:08:28;;;;;;;12.60;10.57;;;12.10;99.90;;;;;;6135283;23;20072;-76
2023/03/19 05:10:54;;;;;;;13.55;10.80;;;12.20;99.90;;;;;;6064788;23;20016;-75
2023/03/19 05:13:20;;;;;;;14.63;10.45;;;13.10;99.90;;;;;;6111046;23;20072;-76
2023/03/19 05:15:46;;;;;;;12.07;10.77;;;13.50;99.90;;;;;;6135736;23;20028;-75
2023/03/19 05:18:12;;;;;;;12.55;10.43;;;13.40;99.90;;;;;;6088516;23;20281;-74
2023/03/19 05:20:41;;;;;;;12.85;9.38;;;12.10;99.90;;;;;;6135110;23;20010;-76
2023/03/19 05:23:07;;;;;;;11.45;9.95;;;12.20;99.90;;;;;;6159623;23;20009;-74
2023/03/19 05:25:34;;;;;;;12.70;9.43;;;13.20;99.90;;;;;;6159335;23;20087;-78
2023/03/19 05:28:02;;;;;;;14.02;9.90;;;11.50;99.90;;;;;;6182388;23;20076;-73
2023/03/19 05:30:28;;;;;;;10.55;8.93;;;12.80;99.90;;;;;;6158622;23;20083;-75
2023/03/19 05:32:57;;;;;;;12.05;9.27;;;11.40;99.90;;;;;;6161659;23;20010;-79
2023/03/19 05:35:23;;;;;;;11.65;9.43;;;11.50;99.90;;;;;;6110631;23;20176;-75
2023/03/19 05:37:49;;;;;;;11.85;9.68;;;13.00;99.90;;;;;;6186434;23;20024;-79
2023/03/19 05:40:15;;;;;;;10.65;8.93;;;13.50;99.90;;;;;;6158444;23;20013;-76
2023/03/19 05:42:41;;;;;;;11.90;9.02;;;11.50;99.90;;;;;;6108673;23;20053;-74
2023/03/19 05:45:07;;;;;;;12.50;9.82;;;13.10;99.90;;;;;;6160314;23;20009;-77
2023/03/19 05:47:42;;;;;;;11.70;8.20;;;11.50;99.90;;;;;;6133908;23;20017;-75
2023/03/19 05:50:08;;;;;;;12.05;8.88;;;13.40;99.90;;;;;;6132100;23;20013;-73
2023/03/19 05:52:34;;;;;;;10.68;8.23;;;11.90;99.90;;;;;;6159277;23;20025;-76
2023/03/19 05:55:00;;;;;;;10.10;8.43;;;13.20;99.90;;;;;;6135775;23;20063;-74
2023/03/19 05:57:26;;;;;;;10.88;7.68;;;11.40;99.90;;;;;;6158570;23;20288;-74
2023/03/19 05:59:51;;;;;;;9.90;8.27;;;12.60;99.90;;;;;;6160057;23;20516;-76
2023/03/19 06:02:17;;;;;;;11.10;8.48;;;11.80;99.90;;;;;;6159343;23;20017;-74
2023/03/19 06:04:43;;;;;;;11.32;8.77;;;13.10;99.90;;;;;;6134272;23;20064;-74
2023/03/19 06:07:09;;;;;;;11.05;8.75;;;13.20;99.90;;;;;;6134236;23;20010;-75
2023/03/19 06:09:35;;;;;;;9.57;7.20;;;12.50;99.90;;;;;;6135568;23;20020;-75
2023/03/19 06:12:00;;;;;;;11.10;8.88;;;13.00;99.90;;;;;;6135954;23;20315;-75
2023/03/19 06:14:26;;;;;;;10.55;8.85;;;12.10;99.90;;;;;;6158753;23;20018;-74
2023/03/19 06:16:52;;;;;;;11.93;8.75;;;11.30;99.90;;;;;;6134100;23;20448;-75
2023/03/19 06:19:17;;;;;;;12.77;9.50;;;11.60;99.90;;;;;;6158869;23;20028;-78
2023/03/19 06:21:43;;;;;;;11.90;9.18;;;11.40;99.90;;;;;;6135093;23;20319;-74
2023/03/19 06:24:09;;;;;;;10.70;8.88;;;11.80;99.90;;;;;;6135810;23;20010;-77
2023/03/19 06:26:36;;;;;;;11.75;9.20;;;11.40;99.90;;;;;;6158493;23;20021;-74
2023/03/19 06:29:01;;;;;;;12.10;9.32;;;12.10;99.90;;;;;;6159792;23;20029;-76
2023/03/19 06:31:27;;;;;;;11.70;9.07;;;11.50;99.90;;;;;;6159521;23;20076;-74
2023/03/19 06:33:53;;;;;;;11.48;9.77;;;12.60;99.90;;;;;;6136329;23;20013;-75
2023/03/19 06:36:19;;;;;;;11.02;9.20;;;13.10;99.90;;;;;;6135250;23;20377;-76
2023/03/19 06:38:45;;;;;;;10.57;9.23;;;13.40;99.90;;;;;;6135338;23;20040;-74
2023/03/19 06:41:11;;;;;;;11.05;9.13;;;13.30;99.90;;;;;;6135293;23;20010;-76
2023/03/19 06:43:40;;;;;;;11.38;9.35;;;13.60;99.90;;;;;;6132039;23;20049;-75
2023/03/19 06:46:06;;;;;;;10.93;9.50;;;12.80;99.90;;;;;;6135950;23;20086;-78
2023/03/19 06:48:33;;;;;;;11.38;8.75;;;12.90;99.90;;;;;;6109937;23;20276;-79
2023/03/19 06:50:59;;;;;;;11.10;8.27;;;13.80;99.90;;;;;;6111113;23;20048;-74
2023/03/19 06:53:25;;;;;;;10.82;8.50;;;12.80;99.90;;;;;;6159774;23;20013;-76
2023/03/19 06:55:50;;;;;;;10.95;7.85;;;12.30;99.90;;;;;;6159639;23;20055;-77
2023/03/19 06:58:16;;;;;;;7.82;7.03;;;12.80;99.90;;;;;;6159215;23;20193;-74
2023/03/19 07:00:42;;;;;;;8.18;6.93;;;13.50;99.90;;;;;;6133981;23;20092;-78
2023/03/19 07:03:09;;;;;;;8.85;7.35;;;13.20;99.90;;;;;;6158170;23;20081;-76
2023/03/19 07:05:35;;;;;;;7.47;6.78;;;13.20;99.90;;;;;;6133502;23;20009;-76
2023/03/19 07:08:01;;;;;;;8.05;6.72;;;12.60;99.90;;;;;;6159326;23;20056;-74
2023/03/19 07:10:27;;;;;;;10.32;7.55;;;14.30;99.90;;;;;;6134907;23;20009;-75
2023/03/19 07:12:52;;;;;;;8.73;7.13;;;13.40;99.90;;;;;;6159376;23;20191;-73
2023/03/19 07:15:20;;;;;;;7.60;6.78;;;13.30;99.90;;;;;;6110501;23;20316;-74
2023/03/19 07:17:46;;;;;;;7.88;7.10;;;13.70;99.90;;;;;;6159138;23;20009;-76
2023/03/19 07:20:13;;;;;;;9.13;6.63;;;13.90;99.90;;;;;;6159662;23;20068;-78
2023/03/19 07:22:39;;;;;;;7.97;6.05;;;13.60;99.90;;;;;;6134471;23;20072;-76
2023/03/19 07:25:06;;;;;;;7.45;6.60;;;13.80;99.90;;;;;;6135012;23;20009;-79
2023/03/19 07:27:31;;;;;;;8.10;6.85;;;13.70;99.90;;;;;;6111348;23;20170;-76
2023/03/19 07:30:00;;;;;;;7.60;6.55;;;13.90;99.90;;;;;;6135343;23;20021;-77
2023/03/19 07:32:26;;;;;;;8.27;6.18;;;14.50;99.90;;;;;;6161107;23;20017;-78
2023/03/19 07:34:51;;;;;;;7.70;6.18;;;14.10;99.90;;;;;;6137172;23;20021;-73
2023/03/19 07:37:17;;;;;;;8.40;6.38;;;14.10;99.90;;;;;;6138420;23;20021;-77
2023/03/19 07:39:55;;;;;;;9.77;6.85;;;14.70;99.90;;;;;;6137465;23;20174;-75
2023/03/19 07:42:20;;;;;;;7.60;6.80;;;14.90;99.90;;;;;;6162393;23;20056;-75
2023/03/19 07:44:46;;;;;;;8.10;6.90;;;14.90;99.90;;;;;;6137174;23;20196;-75
2023/03/19 07:47:12;;;;;;;9.30;8.07;;;15.10;99.90;;;;;;6137811;23;20036;-75
2023/03/19 07:49:37;;;;;;;7.75;6.95;;;15.10;99.90;;;;;;6137557;23;20080;-76
2023/03/19 07:52:03;;;;;;;10.68;8.55;;;14.10;99.90;;;;;;6137181;23;20027;-73
2023/03/19 07:54:30;;;;;;;11.57;8.27;;;14.90;99.90;;;;;;6136528;23;20021;-75
2023/03/19 07:56:58;;;;;;;10.40;8.32;;;14.10;99.90;;;;;;6159347;23;20264;-76
2023/03/19 07:59:24;;;;;;;10.65;7.47;;;14.90;99.90;;;;;;6136844;23;20028;-74
2023/03/19 08:01:49;;;;;;;8.68;7.80;;;14.90;99.90;;;;;;6137529;23;20009;-75
2023/03/19 08:04:18;;;;;;;9.20;7.85;;;15.30;99.90;;;;;;6137576;23;20048;-77
2023/03/19 08:06:43;;;;;;;9.00;7.25;;;15.50;99.90;;;;;;6159561;23;20032;-74
2023/03/19 08:09:09;;;;;;;11.88;8.65;;;15.40;99.90;;;;;;6137464;23;20013;-75
2023/03/19 08:11:35;;;;;;;11.63;9.45;;;15.30;99.90;;;;;;6137107;23;20021;-76
2023/03/19 08:14:01;;;;;;;11.57;9.80;;;14.60;99.90;;;;;;6162534;23;20048;-76
2023/03/19 08:16:27;;;;;;;10.10;8.77;;;15.00;99.90;;;;;;6160929;23;20010;-76
2023/03/19 08:18:53;;;;;;;12.32;8.95;;;14.90;99.90;;;;;;6137750;23;20080;-75
2023/03/19 08:21:19;;;;;;;11.70;9.73;;;14.60;99.90;;;;;;6113049;23;20327;-75
2023/03/19 08:23:44;;;;;;;11.05;9.52;;;15.20;99.90;;;;;;6112287;23;20013;-75
2023/03/19 08:26:14;;;;;;;10.40;9.23;;;15.30;99.90;;;;;;6161160;23;20017;-76
2023/03/19 08:28:40;;;;;;;12.85;10.00;;;15.00;99.90;;;;;;6159691;23;20029;-76
2023/03/19 08:31:11;;;;;;;14.35;10.57;;;15.00;99.90;;;;;;6135449;23;20049;-76
2023/03/19 08:33:36;;;;;;;11.40;9.60;;;15.80;99.90;;;;;;6136453;23;20021;-76
2023/03/19 08:36:10;;;;;;;11.07;9.30;;;15.50;99.90;;;;;;6113257;23;20044;-74
2023/03/19 08:38:36;;;;;;;12.43;9.30;;;15.30;99.90;;;;;;6186108;23;20049;-75
2023/03/19 08:41:03;;;;;;;11.95;9.57;;;15.00;99.90;;;;;;6161461;23;20009;-75
2023/03/19 08:43:33;;;;;;;10.30;9.18;;;15.10;99.90;;;;;;6136904;23;20227;-74
2023/03/19 08:46:00;;;;;;;12.60;9.55;;;15.30;99.90;;;;;;6137319;23;20025;-77
2023/03/19 08:48:26;;;;;;;11.50;9.73;;;14.80;99.90;;;;;;6160224;23;20395;-74
2023/03/19 08:50:56;;;;;;;12.23;10.20;;;15.20;99.90;;;;;;6160742;23;20363;-76
2023/03/19 08:53:23;;;;;;;12.38;11.02;;;14.90;99.90;;;;;;6136192;23;20458;-75
2023/03/19 08:56:13;;;;;;;12.13;10.35;;;14.60;99.90;;;;;;6160693;23;20171;-75
2023/03/19 08:58:45;;;;;;;13.50;11.48;;;14.30;99.90;;;;;;6135399;23;20020;-76
2023/03/19 09:01:29;;;;;;;13.85;11.80;;;14.80;99.90;;;;;;6112280;23;20289;-75
2023/03/19 09:04:07;;;;;;;13.75;11.63;;;14.70;99.90;;;;;;6135757;23;20017;-75
2023/03/19 09:06:33;;;;;;;12.23;10.70;;;14.60;99.90;;;;;;6087693;23;20010;-77
2023/03/19 09:08:59;;;;;;;13.75;11.27;;;15.00;99.90;;;;;;6136376;23;20041;-77
2023/03/19 09:11:25;;;;;;;12.38;10.90;;;15.20;99.90;;;;;;6136822;23;20392;-75
2023/03/19 09:13:50;;;;;;;12.13;10.25;;;16.10;99.90;;;;;;6111737;23;20055;-76
2023/03/19 09:16:17;;;;;;;10.73;9.05;;;15.90;99.90;;;;;;6112470;23;20213;-76
2023/03/19 09:18:43;;;;;;;9.60;7.80;;;16.00;99.90;;;;;;6135538;23;20056;-76
2023/03/19 09:21:11;;;;;;;9.48;7.80;;;15.70;99.90;;;;;;6161087;23;20271;-76
2023/03/19 09:23:37;;;;;;;9.27;7.95;;;16.40;99.90;;;;;;6159484;23;20278;-75
2023/03/19 09:26:03;;;;;;;10.95;7.72;;;16.60;99.90;;;;;;6136499;23;20009;-75
2023/03/19 09:28:29;;;;;;;8.38;7.30;;;16.60;99.90;;;;;;6160032;23;20081;-75
2023/03/19 09:30:54;;;;;;;9.00;7.50;;;16.90;99.90;;;;;;6160262;23;20028;-75
2023/03/19 09:33:20;;;;;;;8.57;7.43;;;16.30;99.90;;;;;;6160089;23;20208;-77
2023/03/19 09:35:52;;;;;;;9.52;7.68;;;16.50;99.90;;;;;;6160389;23;20013;-78
2023/03/19 09:38:18;;;;;;;8.60;7.28;;;15.80;99.90;;;;;;6160612;23;20269;-78
2023/03/19 09:40:48;;;;;;;9.60;8.02;;;15.70;99.90;;;;;;6160000;23;20013;-75
2023/03/19 09:43:39;;;;;;;8.75;7.30;;;15.60;99.90;;;;;;6111571;23;20009;-73
2023/03/19 09:46:13;;;;;;;8.93;6.97;;;15.80;99.90;;;;;;6136228;23;20430;-76
2023/03/19 09:48:50;;;;;;;7.00;6.30;;;15.90;99.90;;;;;;6135940;23;20014;-77
2023/03/19 09:51:24;;;;;;;7.32;6.22;;;15.90;99.90;;;;;;6135980;23;20241;-75
2023/03/19 09:54:00;;;;;;;8.35;7.15;;;15.70;99.90;;;;;;6134849;23;20017;-76
2023/03/19 09:56:26;;;;;;;10.43;8.50;;;15.80;99.90;;;;;;6185012;23;20020;-75
2023/03/19 09:58:52;;;;;;;8.85;7.05;;;15.80;99.90;;;;;;6159875;23;20216;-78
2023/03/19 10:01:38;;;;;;;8.70;6.72;;;16.00;99.90;;;;;;6159541;23;20172;-74
2023/03/19 10:04:10;;;;;;;9.32;7.50;;;15.80;99.90;;;;;;6109965;23;20109;-76
2023/03/19 10:06:39;;;;;;;8.75;7.63;;;15.40;99.90;;;;;;6136343;23;20072;-73
2023/03/19 10:09:15;;;;;;;8.95;7.75;;;15.60;99.90;;;;;;6136529;23;20021;-76
2023/03/19 10:11:56;;;;;;;8.70;7.60;;;15.70;99.90;;;;;;6160219;23;20095;-74
2023/03/19 10:14:50;;;;;;;9.20;8.13;;;15.80;99.90;;;;;;6160058;23;20057;-74
2023/03/19 10:17:27;;;;;;;8.82;7.50;;;15.50;99.90;;;;;;6159018;23;20035;-72
2023/03/19 10:20:05;;;;;;;8.32;6.95;;;15.40;99.90;;;;;;6110505;23;20016;-73
2023/03/19 10:23:22;;;;;;;8.45;6.85;;;15.60;99.90;;;;;;6108649;23;20100;-76
2023/03/19 10:25:53;;;;;;;7.95;6.90;;;15.80;99.90;;;;;;6096302;23;20032;-76
2023/03/19 10:28:20;;;;;;;7.45;6.72;;;15.80;99.90;;;;;;6157034;23;20074;-78
2023/03/19 10:31:23;;;;;;;8.80;7.05;;;15.90;99.90;;;;;;6155829;23;20083;-75
2023/03/19 10:34:13;;;;;;;8.27;7.38;;;15.80;99.90;;;;;;6132251;23;20405;-78
2023/03/19 10:36:38;;;;;;;8.05;6.97;;;15.60;99.90;;;;;;6133858;23;20036;-76
2023/03/19 10:39:06;;;;;;;8.57;7.13;;;15.70;99.90;;;;;;6158176;23;20343;-77
2023/03/19 10:41:38;;;;;;;8.50;7.20;;;15.70;99.90;;;;;;6134666;23;20039;-78
2023/03/19 10:44:37;;;;;;;9.90;7.47;;;15.70;99.90;;;;;;6133729;23;20009;-76
2023/03/19 10:47:14;;;;;;;8.50;7.45;;;15.60;99.90;;;;;;6102073;23;20300;-75
2023/03/19 10:49:40;;;;;;;8.18;6.55;;;15.90;99.90;;;;;;6134123;23;20017;-75
2023/03/19 10:52:19;;;;;;;7.93;6.68;;;15.90;99.90;;;;;;6134398;23;20021;-74
2023/03/19 10:54:45;;;;;;;9.48;6.97;;;15.80;99.90;;;;;;6133645;23;20252;-74
2023/03/19 10:57:23;;;;;;;8.70;7.50;;;16.20;99.90;;;;;;6133704;23;20009;-74
2023/03/19 10:59:49;;;;;;;10.40;7.65;;;16.40;99.90;;;;;;6109206;23;20018;-77
2023/03/19 11:02:22;;;;;;;7.60;6.78;;;16.70;99.90;;;;;;6134436;23;20365;-75
2023/03/19 11:05:38;;;;;;;7.28;6.30;;;16.50;99.90;;;;;;6110083;23;20629;-75
2023/03/19 11:08:04;;;;;;;8.50;7.05;;;16.40;99.90;;;;;;6130715;23;20044;-76
2023/03/19 11:10:46;;;;;;;7.45;6.57;;;16.10;99.90;;;;;;6135137;23;20048;-74
2023/03/19 11:13:19;;;;;;;8.20;6.50;;;16.90;99.90;;;;;;6134694;23;20009;-77
2023/03/19 11:15:47;;;;;;;8.90;6.78;;;15.90;99.90;;;;;;6158269;23;20009;-74
2023/03/19 11:18:21;;;;;;;9.10;8.13;;;15.90;99.90;;;;;;6133926;23;20220;-78
2023/03/19 11:20:58;;;;;;;12.45;7.95;;;16.40;99.90;;;;;;6133766;23;20091;-74
2023/03/19 11:23:30;;;;;;;9.35;8.35;;;16.80;99.90;;;;;;6110301;23;20044;-77
2023/03/19 11:26:03;;;;;;;11.00;8.27;;;16.50;99.90;;;;;;6134035;23;20358;-74
2023/03/19 11:28:32;;;;;;;8.27;7.40;;;16.50;99.90;;;;;;6133522;23;20040;-75
2023/03/19 11:31:18;;;;;;;8.00;7.03;;;16.50;99.90;;;;;;6158649;23;20036;-76
2023/03/19 11:34:14;;;;;;;8.52;7.07;;;16.90;99.90;;;;;;6109807;23;20068;-76
2023/03/19 11:36:43;;;;;;;9.70;7.38;;;16.90;99.90;;;;;;6134389;23;20381;-75
2023/03/19 11:39:44;;;;;;;8.68;7.78;;;16.90;99.90;;;;;;6157680;23;20076;-77
2023/03/19 11:42:25;;;;;;;10.23;8.82;;;17.40;99.90;;;;;;6158765;23;20010;-74
2023/03/19 11:45:12;;;;;;;9.70;8.32;;;17.30;99.90;;;;;;6132509;23;20009;-75
2023/03/19 11:48:02;;;;;;;11.50;8.65;;;17.30;99.90;;;;;;6109911;23;20228;-74
2023/03/19 11:50:43;;;;;;;10.57;8.88;;;17.10;99.90;;;;;;6159024;23;20010;-73
2023/03/19 11:53:34;;;;;;;10.48;9.02;;;16.80;99.90;;;;;;6134011;23;20040;-74
2023/03/19 11:56:11;;;;;;;9.32;8.43;;;16.80;99.90;;;;;;6134358;23;20281;-78
2023/03/19 11:58:48;;;;;;;10.25;8.90;;;15.90;99.90;;;;;;6158826;23;20021;-73
2023/03/19 12:01:30;;;;;;;9.77;8.27;;;16.90;99.90;;;;;;6134630;23;20009;-76
2023/03/19 12:03:59;;;;;;;10.43;8.40;;;16.70;99.90;;;;;;6130546;23;20014;-76
2023/03/19 12:06:43;;;;;;;10.35;8.70;;;16.90;99.90;;;;;;6133909;23;20017;-75
2023/03/19 12:09:27;;;;;;;9.57;8.57;;;17.10;99.90;;;;;;6182931;23;20021;-76
2023/03/19 12:12:00;;;;;;;9.98;8.68;;;17.60;99.90;;;;;;6134464;23;20216;-76
2023/03/19 12:14:47;;;;;;;10.00;9.00;;;17.10;99.90;;;;;;6134970;23;20072;-76
2023/03/19 12:17:36;;;;;;;10.43;8.43;;;17.00;99.90;;;;;;6111293;23;20025;-75
2023/03/19 12:20:27;;;;;;;8.68;7.78;;;17.10;99.90;;;;;;6109594;23;20196;-73
2023/03/19 12:23:16;;;;;;;9.18;8.27;;;16.70;99.90;;;;;;6134406;23;20504;-75
2023/03/19 12:26:04;;;;;;;9.35;8.13;;;16.60;99.90;;;;;;6136326;23;20347;-74
2023/03/19 12:28:35;;;;;;;9.80;8.80;;;16.50;99.90;;;;;;6136400;23;20022;-77
2023/03/19 12:31:43;;;;;;;10.27;9.00;;;16.80;99.90;;;;;;6111288;23;20381;-73
2023/03/19 12:34:11;;;;;;;9.80;8.80;;;16.70;99.90;;;;;;6159333;23;20055;-72
2023/03/19 12:36:44;;;;;;;10.30;8.02;;;16.60;99.90;;;;;;6136497;23;20091;-75
2023/03/19 12:39:14;;;;;;;12.40;10.25;;;16.90;99.90;;;;;;6111443;23;20014;-75
2023/03/19 12:41:43;;;;;;;10.00;8.95;;;16.60;99.90;;;;;;6136604;23;20096;-74
2023/03/19 12:44:20;;;;;;;11.10;9.55;;;16.70;99.90;;;;;;6135239;23;20056;-75
2023/03/19 12:47:10;;;;;;;12.38;9.68;;;16.90;99.90;;;;;;6185848;23;20037;-74
2023/03/19 12:50:04;;;;;;;12.43;9.48;;;17.10;99.90;;;;;;6161236;23;20013;-76